sensor_id;sensor_type;location;lat;lon;timestamp;pressure;altitude;pressure_sealevel;temperature
10869;BMP180;62667;48.698;8.762;2022-11-20T00:01:29;95417.00;;;3.90
10869;BMP180;62667;48.698;8.762;2022-11-20T00:03:58;95413.00;;;3.90
10869;BMP180;62667;48.698;8.762;2022-11-20T00:06:26;95410.00;;;3.90
10869;BMP180;62667;48.698;8.762;2022-11-20T00:08:57;95404.00;;;3.80
10869;BMP180;62667;48.698;8.762;2022-11-20T00:11:27;95414.00;;;3.90
10869;BMP180;62667;48.698;8.762;2022-11-20T00:13:56;95417.00;;;3.90
10869;BMP180;62667;48.698;8.762;2022-11-20T00:16:27;95421.00;;;3.80
10869;BMP180;62667;48.698;8.762;2022-11-20T00:18:54;95410.00;;;3.70
10869;BMP180;62667;48.698;8.762;2022-11-20T00:21:23;95415.00;;;3.70
10869;BMP180;62667;48.698;8.762;2022-11-20T00:23:53;95416.00;;;3.70
10869;BMP180;62667;48.698;8.762;2022-11-20T00:26:22;95410.00;;;3.80
10869;BMP180;62667;48.698;8.762;2022-11-20T00:28:51;95423.00;;;3.80
10869;BMP180;62667;48.698;8.762;2022-11-20T00:31:18;95422.00;;;3.70
10869;BMP180;62667;48.698;8.762;2022-11-20T00:33:48;95425.00;;;3.60
10869;BMP180;62667;48.698;8.762;2022-11-20T00:36:17;95431.00;;;3.60
10869;BMP180;62667;48.698;8.762;2022-11-20T00:38:44;95418.00;;;3.50
10869;BMP180;62667;48.698;8.762;2022-11-20T00:41:14;95425.00;;;3.50
10869;BMP180;62667;48.698;8.762;2022-11-20T00:43:42;95428.00;;;3.50
10869;BMP180;62667;48.698;8.762;2022-11-20T00:46:10;95420.00;;;3.50
10869;BMP180;62667;48.698;8.762;2022-11-20T00:48:37;95421.00;;;3.40
10869;BMP180;62667;48.698;8.762;2022-11-20T00:51:05;95427.00;;;3.40
10869;BMP180;62667;48.698;8.762;2022-11-20T00:53:31;95422.00;;;3.40
10869;BMP180;62667;48.698;8.762;2022-11-20T00:56:01;95425.00;;;3.30
10869;BMP180;62667;48.698;8.762;2022-11-20T00:58:32;95430.00;;;3.30
10869;BMP180;62667;48.698;8.762;2022-11-20T01:01:05;95431.00;;;3.30
10869;BMP180;62667;48.698;8.762;2022-11-20T01:03:33;95423.00;;;3.20
10869;BMP180;62667;48.698;8.762;2022-11-20T01:06:01;95421.00;;;3.30
10869;BMP180;62667;48.698;8.762;2022-11-20T01:08:30;95421.00;;;3.40
10869;BMP180;62667;48.698;8.762;2022-11-20T01:11:00;95423.00;;;3.40
10869;BMP180;62667;48.698;8.762;2022-11-20T01:13:28;95423.00;;;3.40
10869;BMP180;62667;48.698;8.762;2022-11-20T01:16:07;95417.00;;;3.40
10869;BMP180;62667;48.698;8.762;2022-11-20T01:18:35;95420.00;;;3.40
10869;BMP180;62667;48.698;8.762;2022-11-20T01:21:05;95421.00;;;3.40
10869;BMP180;62667;48.698;8.762;2022-11-20T01:23:33;95425.00;;;3.40
10869;BMP180;62667;48.698;8.762;2022-11-20T01:26:02;95421.00;;;3.30
10869;BMP180;62667;48.698;8.762;2022-11-20T01:28:30;95417.00;;;3.20
10869;BMP180;62667;48.698;8.762;2022-11-20T01:30:56;95425.00;;;3.10
10869;BMP180;62667;48.698;8.762;2022-11-20T01:33:24;95429.00;;;3.10
10869;BMP180;62667;48.698;8.762;2022-11-20T01:35:50;95424.00;;;3.10
10869;BMP180;62667;48.698;8.762;2022-11-20T01:38:17;95429.00;;;3.10
10869;BMP180;62667;48.698;8.762;2022-11-20T01:40:45;95421.00;;;3.10
10869;BMP180;62667;48.698;8.762;2022-11-20T01:43:20;95420.00;;;3.00
10869;BMP180;62667;48.698;8.762;2022-11-20T01:46:13;95423.00;;;2.90
10869;BMP180;62667;48.698;8.762;2022-11-20T01:48:48;95418.00;;;2.80
10869;BMP180;62667;48.698;8.762;2022-11-20T01:51:24;95421.00;;;2.70
10869;BMP180;62667;48.698;8.762;2022-11-20T01:53:54;95426.00;;;2.70
10869;BMP180;62667;48.698;8.762;2022-11-20T01:56:26;95427.00;;;2.80
10869;BMP180;62667;48.698;8.762;2022-11-20T01:58:58;95420.00;;;2.70
10869;BMP180;62667;48.698;8.762;2022-11-20T02:01:26;95431.00;;;2.70
10869;BMP180;62667;48.698;8.762;2022-11-20T02:03:58;95413.00;;;2.70
10869;BMP180;62667;48.698;8.762;2022-11-20T02:06:29;95412.00;;;2.60
10869;BMP180;62667;48.698;8.762;2022-11-20T02:08:57;95422.00;;;2.60
10869;BMP180;62667;48.698;8.762;2022-11-20T02:11:24;95414.00;;;2.70
10869;BMP180;62667;48.698;8.762;2022-11-20T02:13:51;95427.00;;;2.80
10869;BMP180;62667;48.698;8.762;2022-11-20T02:16:23;95415.00;;;2.80
10869;BMP180;62667;48.698;8.762;2022-11-20T02:18:50;95411.00;;;2.80
10869;BMP180;62667;48.698;8.762;2022-11-20T02:21:30;95399.00;;;2.90
10869;BMP180;62667;48.698;8.762;2022-11-20T02:24:05;95406.00;;;2.90
10869;BMP180;62667;48.698;8.762;2022-11-20T02:26:41;95408.00;;;3.00
10869;BMP180;62667;48.698;8.762;2022-11-20T02:29:08;95414.00;;;3.00
10869;BMP180;62667;48.698;8.762;2022-11-20T02:31:41;95404.00;;;3.00
10869;BMP180;62667;48.698;8.762;2022-11-20T02:34:08;95425.00;;;2.90
10869;BMP180;62667;48.698;8.762;2022-11-20T02:36:39;95411.00;;;2.90
10869;BMP180;62667;48.698;8.762;2022-11-20T02:39:13;95410.00;;;3.00
10869;BMP180;62667;48.698;8.762;2022-11-20T02:41:43;95421.00;;;3.00
10869;BMP180;62667;48.698;8.762;2022-11-20T02:44:09;95411.00;;;3.10
10869;BMP180;62667;48.698;8.762;2022-11-20T02:46:35;95413.00;;;3.10
10869;BMP180;62667;48.698;8.762;2022-11-20T02:49:03;95410.00;;;3.10
10869;BMP180;62667;48.698;8.762;2022-11-20T02:51:32;95414.00;;;3.20
10869;BMP180;62667;48.698;8.762;2022-11-20T02:53:59;95409.00;;;3.20
10869;BMP180;62667;48.698;8.762;2022-11-20T02:56:26;95414.00;;;3.20
10869;BMP180;62667;48.698;8.762;2022-11-20T02:58:53;95415.00;;;3.10
10869;BMP180;62667;48.698;8.762;2022-11-20T03:01:19;95421.00;;;3.20
10869;BMP180;62667;48.698;8.762;2022-11-20T03:03:46;95419.00;;;3.10
10869;BMP180;62667;48.698;8.762;2022-11-20T03:06:14;95409.00;;;3.00
10869;BMP180;62667;48.698;8.762;2022-11-20T03:08:41;95416.00;;;3.30
10869;BMP180;62667;48.698;8.762;2022-11-20T03:11:08;95432.00;;;3.30
10869;BMP180;62667;48.698;8.762;2022-11-20T03:13:35;95421.00;;;3.10
10869;BMP180;62667;48.698;8.762;2022-11-20T03:16:11;95420.00;;;3.10
10869;BMP180;62667;48.698;8.762;2022-11-20T03:18:38;95409.00;;;3.10
10869;BMP180;62667;48.698;8.762;2022-11-20T03:21:08;95418.00;;;3.20
10869;BMP180;62667;48.698;8.762;2022-11-20T03:23:36;95418.00;;;3.20
10869;BMP180;62667;48.698;8.762;2022-11-20T03:26:11;95414.00;;;3.30
10869;BMP180;62667;48.698;8.762;2022-11-20T03:28:39;95414.00;;;3.20
10869;BMP180;62667;48.698;8.762;2022-11-20T03:31:09;95413.00;;;3.10
10869;BMP180;62667;48.698;8.762;2022-11-20T03:33:35;95403.00;;;3.20
10869;BMP180;62667;48.698;8.762;2022-11-20T03:36:04;95368.00;;;3.20
10869;BMP180;62667;48.698;8.762;2022-11-20T03:38:31;95419.00;;;3.30
10869;BMP180;62667;48.698;8.762;2022-11-20T03:41:00;95391.00;;;3.30
10869;BMP180;62667;48.698;8.762;2022-11-20T03:43:27;95401.00;;;3.40
10869;BMP180;62667;48.698;8.762;2022-11-20T03:45:54;95414.00;;;3.40
10869;BMP180;62667;48.698;8.762;2022-11-20T03:48:21;95408.00;;;3.40
10869;BMP180;62667;48.698;8.762;2022-11-20T03:50:47;95409.00;;;3.60
10869;BMP180;62667;48.698;8.762;2022-11-20T03:53:17;95401.00;;;3.60
10869;BMP180;62667;48.698;8.762;2022-11-20T03:55:43;95401.00;;;3.40
10869;BMP180;62667;48.698;8.762;2022-11-20T03:58:10;95397.00;;;3.50
10869;BMP180;62667;48.698;8.762;2022-11-20T04:00:37;95407.00;;;3.50
10869;BMP180;62667;48.698;8.762;2022-11-20T04:03:04;95399.00;;;3.50
10869;BMP180;62667;48.698;8.762;2022-11-20T04:05:33;95399.00;;;3.40
10869;BMP180;62667;48.698;8.762;2022-11-20T04:08:02;95404.00;;;3.50
10869;BMP180;62667;48.698;8.762;2022-11-20T04:10:28;95400.00;;;3.50
10869;BMP180;62667;48.698;8.762;2022-11-20T04:12:55;95413.00;;;3.40
10869;BMP180;62667;48.698;8.762;2022-11-20T04:15:21;95402.00;;;3.50
10869;BMP180;62667;48.698;8.762;2022-11-20T04:17:47;95399.00;;;3.60
10869;BMP180;62667;48.698;8.762;2022-11-20T04:20:14;95401.00;;;3.70
10869;BMP180;62667;48.698;8.762;2022-11-20T04:22:41;95397.00;;;3.60
10869;BMP180;62667;48.698;8.762;2022-11-20T04:25:08;95382.00;;;3.60
10869;BMP180;62667;48.698;8.762;2022-11-20T04:27:34;95407.00;;;3.50
10869;BMP180;62667;48.698;8.762;2022-11-20T04:30:04;95389.00;;;3.70
10869;BMP180;62667;48.698;8.762;2022-11-20T04:32:31;95386.00;;;3.80
10869;BMP180;62667;48.698;8.762;2022-11-20T04:34:57;95391.00;;;3.70
10869;BMP180;62667;48.698;8.762;2022-11-20T04:37:24;95390.00;;;3.70
10869;BMP180;62667;48.698;8.762;2022-11-20T04:39:51;95391.00;;;3.70
10869;BMP180;62667;48.698;8.762;2022-11-20T04:42:17;95403.00;;;3.60
10869;BMP180;62667;48.698;8.762;2022-11-20T04:44:56;95384.00;;;3.60
10869;BMP180;62667;48.698;8.762;2022-11-20T04:47:23;95401.00;;;3.70
10869;BMP180;62667;48.698;8.762;2022-11-20T04:49:49;95395.00;;;3.70
10869;BMP180;62667;48.698;8.762;2022-11-20T04:52:15;95402.00;;;3.70
10869;BMP180;62667;48.698;8.762;2022-11-20T04:54:43;95390.00;;;3.70
10869;BMP180;62667;48.698;8.762;2022-11-20T04:57:14;95393.00;;;3.70
10869;BMP180;62667;48.698;8.762;2022-11-20T04:59:41;95389.00;;;3.70
10869;BMP180;62667;48.698;8.762;2022-11-20T05:02:07;95393.00;;;3.90
10869;BMP180;62667;48.698;8.762;2022-11-20T05:04:33;95390.00;;;4.00
10869;BMP180;62667;48.698;8.762;2022-11-20T05:07:02;95395.00;;;4.10
10869;BMP180;62667;48.698;8.762;2022-11-20T05:09:29;95390.00;;;4.00
10869;BMP180;62667;48.698;8.762;2022-11-20T05:11:56;95392.00;;;4.20
10869;BMP180;62667;48.698;8.762;2022-11-20T05:14:25;95392.00;;;4.30
10869;BMP180;62667;48.698;8.762;2022-11-20T05:16:51;95394.00;;;4.30
10869;BMP180;62667;48.698;8.762;2022-11-20T05:19:20;95385.00;;;4.40
10869;BMP180;62667;48.698;8.762;2022-11-20T05:21:46;95389.00;;;4.40
10869;BMP180;62667;48.698;8.762;2022-11-20T05:24:15;95382.00;;;4.40
10869;BMP180;62667;48.698;8.762;2022-11-20T05:26:41;95390.00;;;4.50
10869;BMP180;62667;48.698;8.762;2022-11-20T05:29:10;95389.00;;;4.50
10869;BMP180;62667;48.698;8.762;2022-11-20T05:31:39;95387.00;;;4.60
10869;BMP180;62667;48.698;8.762;2022-11-20T05:34:06;95385.00;;;4.50
10869;BMP180;62667;48.698;8.762;2022-11-20T05:36:35;95395.00;;;4.50
10869;BMP180;62667;48.698;8.762;2022-11-20T05:39:01;95393.00;;;4.60
10869;BMP180;62667;48.698;8.762;2022-11-20T05:41:28;95356.00;;;4.40
10869;BMP180;62667;48.698;8.762;2022-11-20T05:43:56;95398.00;;;4.40
10869;BMP180;62667;48.698;8.762;2022-11-20T05:46:27;95384.00;;;4.60
10869;BMP180;62667;48.698;8.762;2022-11-20T05:48:53;95387.00;;;4.50
10869;BMP180;62667;48.698;8.762;2022-11-20T05:51:21;95389.00;;;4.50
10869;BMP180;62667;48.698;8.762;2022-11-20T05:53:47;95381.00;;;4.30
10869;BMP180;62667;48.698;8.762;2022-11-20T05:56:17;95389.00;;;4.20
10869;BMP180;62667;48.698;8.762;2022-11-20T05:58:46;95395.00;;;4.20
10869;BMP180;62667;48.698;8.762;2022-11-20T06:01:19;95400.00;;;4.20
10869;BMP180;62667;48.698;8.762;2022-11-20T06:03:47;95391.00;;;4.10
10869;BMP180;62667;48.698;8.762;2022-11-20T06:06:17;95393.00;;;4.30
10869;BMP180;62667;48.698;8.762;2022-11-20T06:08:45;95367.00;;;4.30
10869;BMP180;62667;48.698;8.762;2022-11-20T06:11:13;95385.00;;;4.30
10869;BMP180;62667;48.698;8.762;2022-11-20T06:13:40;95359.00;;;4.40
10869;BMP180;62667;48.698;8.762;2022-11-20T06:16:07;95387.00;;;4.30
10869;BMP180;62667;48.698;8.762;2022-11-20T06:18:36;95386.00;;;4.30
10869;BMP180;62667;48.698;8.762;2022-11-20T06:21:05;95377.00;;;4.30
10869;BMP180;62667;48.698;8.762;2022-11-20T06:23:34;95389.00;;;4.20
10869;BMP180;62667;48.698;8.762;2022-11-20T06:26:02;95385.00;;;4.20
10869;BMP180;62667;48.698;8.762;2022-11-20T06:28:29;95378.00;;;4.10
10869;BMP180;62667;48.698;8.762;2022-11-20T06:30:56;95381.00;;;4.10
10869;BMP180;62667;48.698;8.762;2022-11-20T06:33:22;95377.00;;;4.20
10869;BMP180;62667;48.698;8.762;2022-11-20T06:35:49;95392.00;;;4.20
10869;BMP180;62667;48.698;8.762;2022-11-20T06:38:18;95382.00;;;4.20
10869;BMP180;62667;48.698;8.762;2022-11-20T06:40:44;95383.00;;;4.30
10869;BMP180;62667;48.698;8.762;2022-11-20T06:43:11;95377.00;;;4.20
10869;BMP180;62667;48.698;8.762;2022-11-20T06:45:37;95378.00;;;4.20
10869;BMP180;62667;48.698;8.762;2022-11-20T06:48:06;95383.00;;;4.20
10869;BMP180;62667;48.698;8.762;2022-11-20T06:50:36;95383.00;;;4.20
10869;BMP180;62667;48.698;8.762;2022-11-20T06:53:04;95388.00;;;4.40
10869;BMP180;62667;48.698;8.762;2022-11-20T06:55:32;95397.00;;;4.30
10869;BMP180;62667;48.698;8.762;2022-11-20T06:57:58;95393.00;;;4.20
10869;BMP180;62667;48.698;8.762;2022-11-20T07:00:24;95387.00;;;4.20
10869;BMP180;62667;48.698;8.762;2022-11-20T07:02:55;95392.00;;;4.30
10869;BMP180;62667;48.698;8.762;2022-11-20T07:05:22;95390.00;;;4.40
10869;BMP180;62667;48.698;8.762;2022-11-20T07:07:48;95394.00;;;4.40
10869;BMP180;62667;48.698;8.762;2022-11-20T07:10:15;95395.00;;;4.50
10869;BMP180;62667;48.698;8.762;2022-11-20T07:12:42;95396.00;;;4.50
10869;BMP180;62667;48.698;8.762;2022-11-20T07:15:08;95399.00;;;4.60
10869;BMP180;62667;48.698;8.762;2022-11-20T07:17:35;95399.00;;;4.60
10869;BMP180;62667;48.698;8.762;2022-11-20T07:20:02;95411.00;;;4.80
10869;BMP180;62667;48.698;8.762;2022-11-20T07:22:28;95410.00;;;4.60
10869;BMP180;62667;48.698;8.762;2022-11-20T07:24:54;95413.00;;;4.60
10869;BMP180;62667;48.698;8.762;2022-11-20T07:27:21;95413.00;;;4.70
10869;BMP180;62667;48.698;8.762;2022-11-20T07:29:50;95423.00;;;4.80
10869;BMP180;62667;48.698;8.762;2022-11-20T07:32:17;95417.00;;;4.80
10869;BMP180;62667;48.698;8.762;2022-11-20T07:34:46;95417.00;;;4.90
10869;BMP180;62667;48.698;8.762;2022-11-20T07:37:15;95424.00;;;4.80
10869;BMP180;62667;48.698;8.762;2022-11-20T07:39:42;95419.00;;;4.80
10869;BMP180;62667;48.698;8.762;2022-11-20T07:42:09;95427.00;;;4.90
10869;BMP180;62667;48.698;8.762;2022-11-20T07:44:35;95419.00;;;4.90
10869;BMP180;62667;48.698;8.762;2022-11-20T07:47:03;95436.00;;;4.80
10869;BMP180;62667;48.698;8.762;2022-11-20T07:49:29;95443.00;;;4.90
10869;BMP180;62667;48.698;8.762;2022-11-20T07:51:56;95435.00;;;4.80
10869;BMP180;62667;48.698;8.762;2022-11-20T07:54:24;95438.00;;;4.90
10869;BMP180;62667;48.698;8.762;2022-11-20T07:56:51;95415.00;;;4.90
10869;BMP180;62667;48.698;8.762;2022-11-20T07:59:17;95440.00;;;5.00
10869;BMP180;62667;48.698;8.762;2022-11-20T08:01:44;95425.00;;;4.70
10869;BMP180;62667;48.698;8.762;2022-11-20T08:04:11;95445.00;;;4.90
10869;BMP180;62667;48.698;8.762;2022-11-20T08:06:37;95446.00;;;4.90
10869;BMP180;62667;48.698;8.762;2022-11-20T08:09:03;95449.00;;;4.90
10869;BMP180;62667;48.698;8.762;2022-11-20T08:11:32;95451.00;;;4.80
10869;BMP180;62667;48.698;8.762;2022-11-20T08:14:17;95444.00;;;5.00
10869;BMP180;62667;48.698;8.762;2022-11-20T08:16:46;95460.00;;;5.00
10869;BMP180;62667;48.698;8.762;2022-11-20T08:19:16;95454.00;;;5.00
10869;BMP180;62667;48.698;8.762;2022-11-20T08:21:43;95454.00;;;4.90
10869;BMP180;62667;48.698;8.762;2022-11-20T08:24:11;95459.00;;;5.00
10869;BMP180;62667;48.698;8.762;2022-11-20T08:26:40;95461.00;;;5.00
10869;BMP180;62667;48.698;8.762;2022-11-20T08:29:09;95452.00;;;4.90
10869;BMP180;62667;48.698;8.762;2022-11-20T08:31:36;95454.00;;;5.10
10869;BMP180;62667;48.698;8.762;2022-11-20T08:34:04;95463.00;;;5.10
10869;BMP180;62667;48.698;8.762;2022-11-20T08:36:34;95469.00;;;4.90
10869;BMP180;62667;48.698;8.762;2022-11-20T08:39:00;95473.00;;;5.00
10869;BMP180;62667;48.698;8.762;2022-11-20T08:41:26;95468.00;;;5.10
10869;BMP180;62667;48.698;8.762;2022-11-20T08:43:56;95470.00;;;5.00
10869;BMP180;62667;48.698;8.762;2022-11-20T08:46:24;95477.00;;;5.10
10869;BMP180;62667;48.698;8.762;2022-11-20T08:48:53;95472.00;;;4.80
10869;BMP180;62667;48.698;8.762;2022-11-20T08:51:20;95482.00;;;4.80
10869;BMP180;62667;48.698;8.762;2022-11-20T08:53:50;95487.00;;;4.80
10869;BMP180;62667;48.698;8.762;2022-11-20T08:56:17;95488.00;;;4.80
10869;BMP180;62667;48.698;8.762;2022-11-20T08:58:46;95492.00;;;4.80
10869;BMP180;62667;48.698;8.762;2022-11-20T09:01:13;95483.00;;;4.80
10869;BMP180;62667;48.698;8.762;2022-11-20T09:03:40;95488.00;;;4.80
10869;BMP180;62667;48.698;8.762;2022-11-20T09:06:08;95487.00;;;4.80
10869;BMP180;62667;48.698;8.762;2022-11-20T09:08:35;95483.00;;;4.60
10869;BMP180;62667;48.698;8.762;2022-11-20T09:11:03;95485.00;;;4.60
10869;BMP180;62667;48.698;8.762;2022-11-20T09:13:30;95494.00;;;4.80
10869;BMP180;62667;48.698;8.762;2022-11-20T09:15:59;95496.00;;;4.60
10869;BMP180;62667;48.698;8.762;2022-11-20T09:18:27;95495.00;;;4.70
10869;BMP180;62667;48.698;8.762;2022-11-20T09:20:57;95491.00;;;4.70
10869;BMP180;62667;48.698;8.762;2022-11-20T09:23:24;95489.00;;;4.80
10869;BMP180;62667;48.698;8.762;2022-11-20T09:25:51;95490.00;;;4.70
10869;BMP180;62667;48.698;8.762;2022-11-20T09:28:19;95492.00;;;4.80
10869;BMP180;62667;48.698;8.762;2022-11-20T09:30:46;95495.00;;;4.80
10869;BMP180;62667;48.698;8.762;2022-11-20T09:33:13;95490.00;;;4.90
10869;BMP180;62667;48.698;8.762;2022-11-20T09:35:40;95496.00;;;5.00
10869;BMP180;62667;48.698;8.762;2022-11-20T09:38:07;95494.00;;;4.80
10869;BMP180;62667;48.698;8.762;2022-11-20T09:40:36;95502.00;;;4.90
10869;BMP180;62667;48.698;8.762;2022-11-20T09:43:12;95502.00;;;5.00
10869;BMP180;62667;48.698;8.762;2022-11-20T09:45:52;95501.00;;;5.10
10869;BMP180;62667;48.698;8.762;2022-11-20T09:48:32;95510.00;;;5.10
10869;BMP180;62667;48.698;8.762;2022-11-20T09:51:09;95498.00;;;5.20
10869;BMP180;62667;48.698;8.762;2022-11-20T09:53:52;95494.00;;;5.40
10869;BMP180;62667;48.698;8.762;2022-11-20T09:56:22;95508.00;;;5.60
10869;BMP180;62667;48.698;8.762;2022-11-20T09:58:51;95499.00;;;5.50
10869;BMP180;62667;48.698;8.762;2022-11-20T10:01:21;95512.00;;;5.60
10869;BMP180;62667;48.698;8.762;2022-11-20T10:03:56;95517.00;;;5.40
10869;BMP180;62667;48.698;8.762;2022-11-20T10:06:30;95518.00;;;5.40
10869;BMP180;62667;48.698;8.762;2022-11-20T10:09:06;95511.00;;;5.40
10869;BMP180;62667;48.698;8.762;2022-11-20T10:11:43;95513.00;;;5.40
10869;BMP180;62667;48.698;8.762;2022-11-20T10:14:25;95510.00;;;5.50
10869;BMP180;62667;48.698;8.762;2022-11-20T10:17:02;95509.00;;;5.50
10869;BMP180;62667;48.698;8.762;2022-11-20T10:19:51;95496.00;;;5.50
10869;BMP180;62667;48.698;8.762;2022-11-20T10:22:35;95494.00;;;5.50
10869;BMP180;62667;48.698;8.762;2022-11-20T10:25:13;95512.00;;;5.50
10869;BMP180;62667;48.698;8.762;2022-11-20T10:30:40;95495.00;;;5.60
10869;BMP180;62667;48.698;8.762;2022-11-20T10:33:15;95509.00;;;5.70
10869;BMP180;62667;48.698;8.762;2022-11-20T10:35:45;95503.00;;;5.80
10869;BMP180;62667;48.698;8.762;2022-11-20T10:38:20;95500.00;;;5.70
10869;BMP180;62667;48.698;8.762;2022-11-20T10:40:50;95503.00;;;5.70
10869;BMP180;62667;48.698;8.762;2022-11-20T10:43:21;95496.00;;;5.60
10869;BMP180;62667;48.698;8.762;2022-11-20T10:45:56;95511.00;;;5.70
10869;BMP180;62667;48.698;8.762;2022-11-20T10:48:26;95501.00;;;5.60
10869;BMP180;62667;48.698;8.762;2022-11-20T10:50:59;95485.00;;;5.70
10869;BMP180;62667;48.698;8.762;2022-11-20T10:53:56;95502.00;;;5.80
10869;BMP180;62667;48.698;8.762;2022-11-20T10:56:33;95497.00;;;5.80
10869;BMP180;62667;48.698;8.762;2022-11-20T10:59:27;95491.00;;;5.90
10869;BMP180;62667;48.698;8.762;2022-11-20T11:01:54;95502.00;;;5.80
10869;BMP180;62667;48.698;8.762;2022-11-20T11:04:33;95494.00;;;5.70
10869;BMP180;62667;48.698;8.762;2022-11-20T11:07:10;95483.00;;;5.90
10869;BMP180;62667;48.698;8.762;2022-11-20T11:09:41;95473.00;;;6.20
10869;BMP180;62667;48.698;8.762;2022-11-20T11:12:09;95451.00;;;6.90
10869;BMP180;62667;48.698;8.762;2022-11-20T11:14:49;95439.00;;;7.60
10869;BMP180;62667;48.698;8.762;2022-11-20T11:17:26;95420.00;;;8.40
10869;BMP180;62667;48.698;8.762;2022-11-20T11:20:03;95407.00;;;8.30
10869;BMP180;62667;48.698;8.762;2022-11-20T11:22:42;95398.00;;;9.30
10869;BMP180;62667;48.698;8.762;2022-11-20T11:25:23;95397.00;;;9.10
10869;BMP180;62667;48.698;8.762;2022-11-20T11:27:51;95387.00;;;10.20
10869;BMP180;62667;48.698;8.762;2022-11-20T11:30:20;95389.00;;;10.20
10869;BMP180;62667;48.698;8.762;2022-11-20T11:32:46;95383.00;;;10.50
10869;BMP180;62667;48.698;8.762;2022-11-20T11:35:24;95371.00;;;10.90
10869;BMP180;62667;48.698;8.762;2022-11-20T11:37:55;95370.00;;;10.80
10869;BMP180;62667;48.698;8.762;2022-11-20T11:40:31;95360.00;;;12.20
10869;BMP180;62667;48.698;8.762;2022-11-20T11:43:01;95380.00;;;11.80
10869;BMP180;62667;48.698;8.762;2022-11-20T11:45:28;95368.00;;;12.70
10869;BMP180;62667;48.698;8.762;2022-11-20T11:47:57;95356.00;;;14.90
10869;BMP180;62667;48.698;8.762;2022-11-20T11:50:28;95449.00;;;11.80
10869;BMP180;62667;48.698;8.762;2022-11-20T11:53:07;95434.00;;;10.40
10869;BMP180;62667;48.698;8.762;2022-11-20T11:55:43;95404.00;;;9.80
10869;BMP180;62667;48.698;8.762;2022-11-20T11:58:33;95379.00;;;10.10
10869;BMP180;62667;48.698;8.762;2022-11-20T12:01:13;95346.00;;;9.90
10869;BMP180;62667;48.698;8.762;2022-11-20T12:03:46;95404.00;;;12.70
10869;BMP180;62667;48.698;8.762;2022-11-20T12:06:19;95356.00;;;13.60
10869;BMP180;62667;48.698;8.762;2022-11-20T12:08:51;95323.00;;;15.10
10869;BMP180;62667;48.698;8.762;2022-11-20T12:11:26;95353.00;;;17.00
10869;BMP180;62667;48.698;8.762;2022-11-20T12:14:04;95348.00;;;20.40
10869;BMP180;62667;48.698;8.762;2022-11-20T12:16:36;95339.00;;;21.10
10869;BMP180;62667;48.698;8.762;2022-11-20T12:19:08;95345.00;;;19.80
10869;BMP180;62667;48.698;8.762;2022-11-20T12:21:52;95327.00;;;18.70
10869;BMP180;62667;48.698;8.762;2022-11-20T12:24:39;95342.00;;;14.80
10869;BMP180;62667;48.698;8.762;2022-11-20T12:27:52;95338.00;;;16.00
10869;BMP180;62667;48.698;8.762;2022-11-20T12:30:24;95396.00;;;14.90
10869;BMP180;62667;48.698;8.762;2022-11-20T12:33:12;95391.00;;;13.90
10869;BMP180;62667;48.698;8.762;2022-11-20T12:35:57;95311.00;;;13.00
10869;BMP180;62667;48.698;8.762;2022-11-20T12:38:58;95346.00;;;16.30
10869;BMP180;62667;48.698;8.762;2022-11-20T12:41:45;95352.00;;;15.80
10869;BMP180;62667;48.698;8.762;2022-11-20T12:44:44;95433.00;;;20.50
10869;BMP180;62667;48.698;8.762;2022-11-20T12:47:47;95434.00;;;14.90
10869;BMP180;62667;48.698;8.762;2022-11-20T12:50:31;95404.00;;;10.60
10869;BMP180;62667;48.698;8.762;2022-11-20T12:53:05;95430.00;;;9.40
10869;BMP180;62667;48.698;8.762;2022-11-20T12:55:43;95433.00;;;12.20
10869;BMP180;62667;48.698;8.762;2022-11-20T12:58:24;95427.00;;;9.90
10869;BMP180;62667;48.698;8.762;2022-11-20T13:01:00;95428.00;;;9.10
10869;BMP180;62667;48.698;8.762;2022-11-20T13:03:44;95422.00;;;8.40
10869;BMP180;62667;48.698;8.762;2022-11-20T13:06:18;95422.00;;;8.10
10869;BMP180;62667;48.698;8.762;2022-11-20T13:08:52;95431.00;;;7.80
10869;BMP180;62667;48.698;8.762;2022-11-20T13:11:25;95434.00;;;7.50
10869;BMP180;62667;48.698;8.762;2022-11-20T13:14:24;95435.00;;;7.30
10869;BMP180;62667;48.698;8.762;2022-11-20T13:17:00;95433.00;;;7.10
10869;BMP180;62667;48.698;8.762;2022-11-20T13:19:31;95438.00;;;7.00
10869;BMP180;62667;48.698;8.762;2022-11-20T13:22:00;95428.00;;;6.80
10869;BMP180;62667;48.698;8.762;2022-11-20T13:24:29;95420.00;;;6.80
10869;BMP180;62667;48.698;8.762;2022-11-20T13:27:16;95410.00;;;6.90
10869;BMP180;62667;48.698;8.762;2022-11-20T13:29:45;95408.00;;;6.80
10869;BMP180;62667;48.698;8.762;2022-11-20T13:32:15;95406.00;;;6.80
10869;BMP180;62667;48.698;8.762;2022-11-20T13:34:53;95409.00;;;7.00
10869;BMP180;62667;48.698;8.762;2022-11-20T13:37:28;95405.00;;;7.10
10869;BMP180;62667;48.698;8.762;2022-11-20T13:40:21;95405.00;;;7.50
10869;BMP180;62667;48.698;8.762;2022-11-20T13:43:00;95322.00;;;7.80
10869;BMP180;62667;48.698;8.762;2022-11-20T13:45:29;95361.00;;;12.20
10869;BMP180;62667;48.698;8.762;2022-11-20T13:47:57;95319.00;;;14.00
10869;BMP180;62667;48.698;8.762;2022-11-20T13:50:39;95385.00;;;16.10
10869;BMP180;62667;48.698;8.762;2022-11-20T13:53:20;95383.00;;;11.70
10869;BMP180;62667;48.698;8.762;2022-11-20T13:55:54;95376.00;;;11.50
10869;BMP180;62667;48.698;8.762;2022-11-20T13:58:31;95350.00;;;10.50
10869;BMP180;62667;48.698;8.762;2022-11-20T14:01:09;95379.00;;;9.60
10869;BMP180;62667;48.698;8.762;2022-11-20T14:03:38;95365.00;;;8.80
10869;BMP180;62667;48.698;8.762;2022-11-20T14:06:14;95381.00;;;8.70
10869;BMP180;62667;48.698;8.762;2022-11-20T14:08:44;95383.00;;;7.80
10869;BMP180;62667;48.698;8.762;2022-11-20T14:11:16;95374.00;;;7.00
10869;BMP180;62667;48.698;8.762;2022-11-20T14:13:57;95378.00;;;6.80
10869;BMP180;62667;48.698;8.762;2022-11-20T14:16:28;95373.00;;;6.80
10869;BMP180;62667;48.698;8.762;2022-11-20T14:18:56;95382.00;;;7.00
10869;BMP180;62667;48.698;8.762;2022-11-20T14:21:25;95370.00;;;6.50
10869;BMP180;62667;48.698;8.762;2022-11-20T14:24:03;95372.00;;;6.60
10869;BMP180;62667;48.698;8.762;2022-11-20T14:26:33;95364.00;;;6.40
10869;BMP180;62667;48.698;8.762;2022-11-20T14:29:02;95361.00;;;6.60
10869;BMP180;62667;48.698;8.762;2022-11-20T14:31:29;95357.00;;;6.70
10869;BMP180;62667;48.698;8.762;2022-11-20T14:33:57;95354.00;;;6.60
10869;BMP180;62667;48.698;8.762;2022-11-20T14:36:25;95364.00;;;6.60
10869;BMP180;62667;48.698;8.762;2022-11-20T14:38:52;95347.00;;;6.70
10869;BMP180;62667;48.698;8.762;2022-11-20T14:41:21;95318.00;;;8.00
10869;BMP180;62667;48.698;8.762;2022-11-20T14:43:53;95307.00;;;10.20